Terminal Aerodrome Forecast
Issued by NWS Jackson, KY

Home | Current Version | Previous Version | Text Only | Print | Product List | Glossary On
Versions: 1 2 3 4 5 6 7 8 9 10 11 12 13 14 15 16
000
FTUS43 KJKL 221700 RRA
TAFJKL
TAF
KJKL 221739Z 2218/2318 VRB03KT P6SM BKN030
     FM222300 VRB03KT P6SM FEW040 BKN150
     FM231600 VRB06KT P6SM VCSH OVC050=

USA.gov is the U.S. government's official web portal to all federal, state and local government web resources and services.